Time;durP1;ratioP1;P1;durP2;ratioP2;P2;SDS_P1;SDS_P2;PMS_P1;PMS_P2;Temp;Humidity;BMP_temperature;BMP_pressure;BME280_temperature;BME280_humidity;BME280_pressure;Samples;Min_cycle;Max_cycle;Signal;HPM_P1;HPM_P2
2021/12/29 00:02:18;;;;;;;49.22;14.13;;;6.70;99.90;;;;;;4988410;28;264206;-68
2021/12/29 00:04:44;;;;;;;42.28;12.60;;;6.70;99.90;;;;;;5026048;28;20058;-68
2021/12/29 00:07:10;;;;;;;45.08;12.73;;;6.70;99.90;;;;;;5004973;28;264657;-69
2021/12/29 00:09:40;;;;;;;40.33;12.50;;;6.70;99.90;;;;;;5026271;28;20057;-69
2021/12/29 00:12:08;;;;;;;46.58;12.02;;;6.70;99.90;;;;;;5011623;28;252190;-71
2021/12/29 00:14:34;;;;;;;35.28;10.50;;;6.70;99.90;;;;;;5025559;28;20053;-70
2021/12/29 00:17:01;;;;;;;41.08;11.30;;;6.70;99.90;;;;;;4985725;28;259619;-69
2021/12/29 00:19:27;;;;;;;41.88;10.45;;;6.70;99.90;;;;;;5024714;28;20049;-69
2021/12/29 00:21:53;;;;;;;39.00;10.20;;;6.60;99.90;;;;;;5006991;28;256172;-69
2021/12/29 00:24:19;;;;;;;43.15;9.82;;;6.70;99.90;;;;;;5026116;28;20056;-70
2021/12/29 00:26:45;;;;;;;34.67;9.43;;;6.70;99.90;;;;;;5006080;28;265173;-69
2021/12/29 00:29:12;;;;;;;40.05;9.93;;;6.70;99.90;;;;;;5028249;28;20056;-69
2021/12/29 00:31:38;;;;;;;36.25;9.85;;;6.60;99.90;;;;;;5030593;28;20049;-69
2021/12/29 00:34:04;;;;;;;39.42;10.65;;;6.70;99.90;;;;;;5012099;28;124592;-69
2021/12/29 00:36:30;;;;;;;36.42;10.23;;;6.60;99.90;;;;;;5028409;28;20050;-70
2021/12/29 00:38:57;;;;;;;38.75;11.02;;;6.70;99.90;;;;;;5003865;28;272138;-70
2021/12/29 00:41:23;;;;;;;40.80;10.07;;;6.70;99.90;;;;;;5022938;28;20056;-70
2021/12/29 00:43:49;;;;;;;42.60;10.77;;;6.70;99.90;;;;;;5003936;28;251676;-69
2021/12/29 00:46:18;;;;;;;46.88;11.38;;;6.70;99.90;;;;;;5007576;28;20048;-70
2021/12/29 00:48:46;;;;;;;43.70;10.85;;;6.70;99.90;;;;;;5002976;28;273535;-70
2021/12/29 00:51:12;;;;;;;42.50;11.48;;;6.70;99.90;;;;;;5027924;28;21854;-69
2021/12/29 00:53:39;;;;;;;46.28;11.68;;;6.70;99.90;;;;;;5011035;28;268312;-70
2021/12/29 00:56:06;;;;;;;45.63;12.48;;;6.70;99.90;;;;;;5026533;28;20057;-70
2021/12/29 00:58:32;;;;;;;57.78;12.55;;;6.70;99.90;;;;;;4998381;28;108856;-71
2021/12/29 01:01:00;;;;;;;57.88;13.00;;;6.70;99.90;;;;;;5027606;28;20430;-71
2021/12/29 01:03:27;;;;;;;70.93;13.77;;;6.80;99.90;;;;;;4974886;28;272079;-69
2021/12/29 01:05:53;;;;;;;67.35;13.70;;;6.70;99.90;;;;;;5023989;28;20537;-71
2021/12/29 01:08:20;;;;;;;81.20;15.63;;;6.80;99.90;;;;;;5006331;28;161529;-68
2021/12/29 01:10:47;;;;;;;81.90;15.15;;;6.80;99.90;;;;;;5027442;28;20068;-69
2021/12/29 01:13:19;;;;;;;84.30;17.48;;;6.80;99.90;;;;;;5009469;28;255410;-70
2021/12/29 01:18:27;;;;;;;104.53;17.63;;;6.90;99.90;;;;;;5018791;28;114104;-68
2021/12/29 01:20:55;;;;;;;97.93;16.45;;;6.80;99.90;;;;;;5010938;28;20133;-69
2021/12/29 01:23:22;;;;;;;112.15;17.63;;;6.90;99.90;;;;;;5009253;28;110747;-69
2021/12/29 01:25:48;;;;;;;97.40;17.30;;;6.90;99.90;;;;;;5027071;28;20061;-70
2021/12/29 01:28:15;;;;;;;108.63;17.33;;;6.90;99.90;;;;;;5007864;28;268666;-69
2021/12/29 01:30:41;;;;;;;109.32;17.80;;;6.90;99.90;;;;;;5032791;28;20048;-70
2021/12/29 01:33:07;;;;;;;110.35;19.10;;;7.00;99.90;;;;;;5007775;28;258189;-70
2021/12/29 01:35:34;;;;;;;106.80;17.58;;;7.00;99.90;;;;;;5024741;28;20045;-70
2021/12/29 01:38:01;;;;;;;107.70;17.95;;;7.00;99.90;;;;;;5009533;28;252435;-70
2021/12/29 01:40:29;;;;;;;125.53;19.23;;;7.00;99.90;;;;;;5027861;28;20045;-69
2021/12/29 01:42:55;;;;;;;171.55;21.90;;;7.00;99.90;;;;;;4991117;28;208491;-69
2021/12/29 01:45:22;;;;;;;181.40;20.77;;;7.00;99.90;;;;;;5022508;28;20048;-70
2021/12/29 01:47:48;;;;;;;167.07;19.08;;;7.00;99.90;;;;;;5006459;28;243119;-70
2021/12/29 01:50:14;;;;;;;208.32;20.98;;;7.00;99.90;;;;;;5028147;28;20049;-69
2021/12/29 01:52:42;;;;;;;171.15;21.10;;;7.00;99.90;;;;;;5006971;28;258172;-70
2021/12/29 01:55:12;;;;;;;189.57;20.83;;;7.00;99.90;;;;;;5030537;28;20410;-69
2021/12/29 01:57:39;;;;;;;206.77;22.25;;;7.00;99.90;;;;;;5006005;28;258354;-70
2021/12/29 02:00:11;;;;;;;187.02;20.92;;;7.00;99.90;;;;;;5033168;28;20037;-70
2021/12/29 02:02:38;;;;;;;201.77;21.48;;;7.00;99.90;;;;;;4995175;28;253990;-70
2021/12/29 02:05:05;;;;;;;178.85;19.00;;;7.00;99.90;;;;;;5030746;28;20049;-70
2021/12/29 02:07:31;;;;;;;152.82;18.08;;;7.00;99.90;;;;;;5007762;28;262300;-71
2021/12/29 02:09:58;;;;;;;196.05;18.83;;;7.00;99.90;;;;;;5027306;28;20052;-69
2021/12/29 02:12:24;;;;;;;141.20;16.02;;;7.00;99.90;;;;;;5004704;28;269423;-70
2021/12/29 02:14:50;;;;;;;144.88;17.23;;;7.10;99.90;;;;;;5022813;28;20049;-70
2021/12/29 02:17:16;;;;;;;124.78;15.73;;;7.00;99.90;;;;;;5006970;28;252363;-69
2021/12/29 02:19:46;;;;;;;99.97;14.45;;;7.10;99.90;;;;;;5027736;28;20057;-69
2021/12/29 02:22:41;;;;;;;88.47;13.00;;;7.00;99.90;;;;;;4990420;28;241403;-70
2021/12/29 02:25:54;;;;;;;103.07;13.23;;;7.10;99.90;;;;;;5022641;28;20073;-68
2021/12/29 02:27:55;;;;;;;107.05;12.18;;;7.10;99.90;;;;;;4985853;28;105505;-70
2021/12/29 02:30:25;;;;;;;101.57;12.93;;;7.00;99.90;;;;;;5009564;28;20041;-72
2021/12/29 02:32:57;;;;;;;138.07;14.02;;;7.10;99.90;;;;;;5006494;28;257489;-70
2021/12/29 02:35:25;;;;;;;111.28;12.23;;;7.10;99.90;;;;;;5029561;28;20057;-70
2021/12/29 02:37:51;;;;;;;148.10;13.05;;;7.10;99.90;;;;;;4991762;28;194281;-69
2021/12/29 02:40:17;;;;;;;113.45;12.30;;;7.10;99.90;;;;;;5023563;28;20057;-70
2021/12/29 02:42:43;;;;;;;104.15;12.88;;;7.10;99.90;;;;;;5006703;28;256850;-70
2021/12/29 02:45:15;;;;;;;113.75;12.95;;;7.10;99.90;;;;;;5002650;28;20125;-70
2021/12/29 02:47:42;;;;;;;116.60;13.20;;;7.10;99.90;;;;;;5008247;28;263825;-71
2021/12/29 02:50:09;;;;;;;103.82;12.90;;;7.10;99.90;;;;;;5011306;28;20050;-70
2021/12/29 02:52:35;;;;;;;87.72;12.75;;;7.10;99.90;;;;;;5006961;28;255044;-70
2021/12/29 02:55:02;;;;;;;96.60;13.73;;;7.10;99.90;;;;;;5027939;28;20057;-70
2021/12/29 02:57:28;;;;;;;91.70;14.02;;;7.10;99.90;;;;;;4989119;28;240896;-70
2021/12/29 02:59:54;;;;;;;86.97;12.93;;;7.10;99.90;;;;;;5024925;28;20232;-70
2021/12/29 03:02:21;;;;;;;99.55;14.15;;;7.10;99.90;;;;;;4994937;28;259216;-70
2021/12/29 03:04:47;;;;;;;87.65;14.27;;;7.20;99.90;;;;;;5013564;28;20564;-69
2021/12/29 03:07:13;;;;;;;86.88;14.38;;;7.20;99.90;;;;;;5004626;28;261300;-69
2021/12/29 03:09:39;;;;;;;90.15;15.10;;;7.20;99.90;;;;;;5021444;28;20529;-68
2021/12/29 03:12:06;;;;;;;91.00;15.77;;;7.20;99.90;;;;;;5003443;28;272297;-70
2021/12/29 03:14:32;;;;;;;89.05;15.98;;;7.20;99.90;;;;;;5013637;28;20060;-70
2021/12/29 03:16:59;;;;;;;93.18;15.45;;;7.20;99.90;;;;;;5006574;28;275304;-69
2021/12/29 03:19:25;;;;;;;81.55;16.35;;;7.20;99.90;;;;;;5015727;28;20053;-69
2021/12/29 03:21:51;;;;;;;82.72;16.95;;;7.20;99.90;;;;;;5007056;28;257704;-68
2021/12/29 03:24:20;;;;;;;88.30;16.83;;;7.30;99.90;;;;;;5024723;28;20060;-69
2021/12/29 03:26:47;;;;;;;90.32;18.15;;;7.30;99.90;;;;;;5003580;28;263076;-69
2021/12/29 03:29:13;;;;;;;98.95;18.50;;;7.30;99.90;;;;;;5024473;28;20049;-69
2021/12/29 03:31:41;;;;;;;85.13;19.45;;;7.30;99.90;;;;;;5023515;28;20056;-67
2021/12/29 03:34:08;;;;;;;92.15;20.58;;;7.30;99.90;;;;;;4980164;28;20052;-68
2021/12/29 03:36:34;;;;;;;90.10;21.42;;;7.40;99.90;;;;;;5025269;28;20057;-68
2021/12/29 03:39:00;;;;;;;92.28;22.52;;;7.40;99.90;;;;;;5005687;28;267966;-70
2021/12/29 03:41:27;;;;;;;102.72;23.67;;;7.40;99.90;;;;;;5023239;28;20430;-70
2021/12/29 03:43:53;;;;;;;102.07;23.58;;;7.40;99.90;;;;;;5011688;28;87174;-71
2021/12/29 03:46:19;;;;;;;112.57;24.83;;;7.40;99.90;;;;;;5024392;28;20052;-70
2021/12/29 03:48:46;;;;;;;95.40;23.65;;;7.50;99.90;;;;;;5004800;28;271975;-69
2021/12/29 03:51:13;;;;;;;88.57;24.40;;;7.40;99.90;;;;;;5024338;28;20042;-69
2021/12/29 03:53:39;;;;;;;106.78;24.83;;;7.40;99.90;;;;;;4994554;28;128378;-71
2021/12/29 03:56:06;;;;;;;102.07;25.73;;;7.50;99.90;;;;;;5022187;28;20437;-70
2021/12/29 03:58:33;;;;;;;106.13;26.27;;;7.50;99.90;;;;;;5004655;28;262462;-68
2021/12/29 04:01:05;;;;;;;113.00;27.42;;;7.50;99.90;;;;;;5021441;28;20050;-69
2021/12/29 04:03:31;;;;;;;109.82;26.92;;;7.50;99.90;;;;;;4992399;28;81837;-69
2021/12/29 04:05:58;;;;;;;115.45;27.02;;;7.60;99.90;;;;;;5024552;28;20056;-71
2021/12/29 04:08:24;;;;;;;96.40;26.40;;;7.60;99.90;;;;;;5004763;28;264872;-69
2021/12/29 04:10:50;;;;;;;105.10;26.65;;;7.60;99.90;;;;;;5019901;28;20589;-68
2021/12/29 04:13:16;;;;;;;113.95;27.45;;;7.50;99.90;;;;;;5000718;28;256573;-69
2021/12/29 04:15:42;;;;;;;91.75;24.75;;;7.60;99.90;;;;;;5026985;28;20685;-68
2021/12/29 04:18:15;;;;;;;86.13;25.10;;;7.60;99.90;;;;;;4996043;28;100515;-69
2021/12/29 04:21:02;;;;;;;103.57;24.63;;;7.60;99.90;;;;;;5027797;28;20064;-69
2021/12/29 04:23:34;;;;;;;82.32;24.52;;;7.60;99.90;;;;;;4997779;28;27537;-70
2021/12/29 04:26:02;;;;;;;80.63;24.05;;;7.60;99.90;;;;;;5027765;28;20061;-70
2021/12/29 04:28:29;;;;;;;88.53;23.83;;;7.60;99.90;;;;;;5006142;28;243724;-70
2021/12/29 04:31:07;;;;;;;79.57;23.42;;;7.60;99.90;;;;;;5028029;28;20053;-69
2021/12/29 04:33:34;;;;;;;84.45;23.05;;;7.60;99.90;;;;;;4992807;28;162419;-69
2021/12/29 04:36:01;;;;;;;83.72;23.95;;;7.60;99.90;;;;;;5029047;28;20075;-69
2021/12/29 04:38:27;;;;;;;81.70;23.48;;;7.50;99.90;;;;;;5008431;28;262354;-69
2021/12/29 04:40:55;;;;;;;91.60;22.92;;;7.50;99.90;;;;;;5029981;28;20084;-70
2021/12/29 04:43:23;;;;;;;85.18;22.40;;;7.60;99.90;;;;;;5005705;28;274065;-70
2021/12/29 04:45:50;;;;;;;77.88;21.52;;;7.50;99.90;;;;;;5010201;28;20064;-69
2021/12/29 04:48:17;;;;;;;82.30;21.27;;;7.50;99.90;;;;;;4993530;28;103020;-69
2021/12/29 04:50:51;;;;;;;75.95;21.85;;;7.50;99.90;;;;;;5026302;28;20054;-70
2021/12/29 04:53:20;;;;;;;75.80;20.58;;;7.50;99.90;;;;;;5004186;28;267357;-70
2021/12/29 04:55:49;;;;;;;76.25;21.40;;;7.50;99.90;;;;;;5026616;28;20088;-69
2021/12/29 04:58:21;;;;;;;60.30;19.48;;;7.50;99.90;;;;;;5004279;28;259306;-69
2021/12/29 05:00:49;;;;;;;81.45;20.38;;;7.50;99.90;;;;;;5027538;28;20549;-69
2021/12/29 05:03:15;;;;;;;66.18;19.75;;;7.50;99.90;;;;;;4995531;28;264966;-69
2021/12/29 05:05:54;;;;;;;70.25;19.23;;;7.50;99.90;;;;;;5013307;28;20053;-69
2021/12/29 05:08:24;;;;;;;71.22;20.45;;;7.50;99.90;;;;;;5005713;28;258506;-68
2021/12/29 05:10:52;;;;;;;68.15;19.27;;;7.50;99.90;;;;;;5029362;28;20046;-69
2021/12/29 05:13:18;;;;;;;71.97;18.85;;;7.50;99.90;;;;;;5006177;28;259692;-71
2021/12/29 05:15:45;;;;;;;71.85;18.10;;;7.50;99.90;;;;;;5021119;28;20049;-69
2021/12/29 05:18:11;;;;;;;65.55;18.75;;;7.50;99.90;;;;;;5006304;28;274819;-69
2021/12/29 05:20:37;;;;;;;71.28;19.38;;;7.50;99.90;;;;;;5025293;28;20375;-68
2021/12/29 05:23:04;;;;;;;76.50;18.25;;;7.50;99.90;;;;;;5003551;28;257906;-70
2021/12/29 05:25:30;;;;;;;69.43;18.15;;;7.50;99.90;;;;;;5024629;28;20068;-67
2021/12/29 05:27:57;;;;;;;73.15;19.27;;;7.50;99.90;;;;;;5005701;28;287768;-70
2021/12/29 05:30:23;;;;;;;76.72;18.45;;;7.50;99.90;;;;;;5022912;28;20054;-69
2021/12/29 05:32:49;;;;;;;62.78;19.83;;;7.50;99.90;;;;;;5001304;28;268407;-70
2021/12/29 05:35:16;;;;;;;62.80;18.85;;;7.50;99.90;;;;;;5006741;28;20403;-70
2021/12/29 05:37:44;;;;;;;74.50;20.23;;;7.50;99.90;;;;;;5003955;28;275039;-69
2021/12/29 05:40:11;;;;;;;75.85;20.20;;;7.50;99.90;;;;;;5007743;28;20053;-70
2021/12/29 05:42:38;;;;;;;69.10;19.45;;;7.50;99.90;;;;;;4992129;28;89832;-69
2021/12/29 05:45:06;;;;;;;61.65;19.35;;;7.50;99.90;;;;;;5023192;28;20546;-68
2021/12/29 05:47:33;;;;;;;68.90;20.48;;;7.50;99.90;;;;;;5001677;28;238121;-69
2021/12/29 05:49:59;;;;;;;65.70;19.73;;;7.50;99.90;;;;;;5023552;28;20062;-68
2021/12/29 05:52:25;;;;;;;62.42;19.83;;;7.50;99.90;;;;;;4997416;28;175900;-68
2021/12/29 05:54:51;;;;;;;57.08;19.42;;;7.50;99.90;;;;;;5025556;28;20536;-70
2021/12/29 05:57:17;;;;;;;67.25;20.65;;;7.50;99.90;;;;;;4997221;28;60798;-69
2021/12/29 05:59:44;;;;;;;64.40;19.23;;;7.50;99.90;;;;;;5022530;28;20062;-68
2021/12/29 06:02:10;;;;;;;64.38;20.77;;;7.50;99.90;;;;;;4982657;28;108202;-68
2021/12/29 06:04:36;;;;;;;65.95;19.52;;;7.50;99.90;;;;;;5027665;28;20418;-70
2021/12/29 06:07:02;;;;;;;81.78;20.52;;;7.50;99.90;;;;;;5005762;28;256535;-70
2021/12/29 06:09:28;;;;;;;80.22;20.63;;;7.50;99.90;;;;;;5015571;28;20816;-69
2021/12/29 06:11:55;;;;;;;78.43;19.20;;;7.50;99.90;;;;;;5010595;28;260273;-70
2021/12/29 06:14:21;;;;;;;79.03;19.75;;;7.50;99.90;;;;;;5027201;28;20341;-70
2021/12/29 06:16:47;;;;;;;75.25;19.50;;;7.50;99.90;;;;;;5007196;28;265098;-71
2021/12/29 06:19:13;;;;;;;78.65;19.38;;;7.50;99.90;;;;;;5028231;28;20045;-69
2021/12/29 06:21:40;;;;;;;78.38;18.55;;;7.60;99.90;;;;;;5028124;28;20429;-69
2021/12/29 06:24:07;;;;;;;78.85;18.60;;;7.60;99.90;;;;;;4988873;28;268149;-69
2021/12/29 06:26:34;;;;;;;82.65;18.90;;;7.60;99.90;;;;;;5010232;28;20144;-69
2021/12/29 06:29:01;;;;;;;88.18;18.90;;;7.60;99.90;;;;;;5008898;28;264085;-69
2021/12/29 06:31:27;;;;;;;82.70;18.48;;;7.60;99.90;;;;;;5015974;28;20388;-69
2021/12/29 06:33:53;;;;;;;80.65;18.58;;;7.60;99.90;;;;;;5001595;28;257748;-70
2021/12/29 06:36:20;;;;;;;70.07;18.02;;;7.60;99.90;;;;;;5031030;28;20055;-69
2021/12/29 06:38:46;;;;;;;77.70;18.85;;;7.60;99.90;;;;;;5008430;28;268246;-70
2021/12/29 06:41:12;;;;;;;70.75;18.40;;;7.60;99.90;;;;;;5028291;28;20402;-69
2021/12/29 06:43:38;;;;;;;78.85;18.85;;;7.50;99.90;;;;;;4991140;28;162210;-69
2021/12/29 06:46:04;;;;;;;84.90;19.30;;;7.50;99.90;;;;;;5028158;28;20057;-70
2021/12/29 06:48:30;;;;;;;89.38;19.50;;;7.50;99.90;;;;;;5005719;28;266592;-68
2021/12/29 06:50:56;;;;;;;108.90;20.52;;;7.50;99.90;;;;;;5027439;28;20060;-69
2021/12/29 06:53:22;;;;;;;76.22;18.98;;;7.50;99.90;;;;;;5006279;28;273309;-70
2021/12/29 06:55:49;;;;;;;90.32;19.15;;;7.50;99.90;;;;;;5027681;28;20077;-68
2021/12/29 06:58:15;;;;;;;79.07;18.70;;;7.50;99.90;;;;;;5007652;28;273540;-69
2021/12/29 07:00:41;;;;;;;92.43;19.48;;;7.50;99.90;;;;;;5028955;28;20053;-70
2021/12/29 07:03:07;;;;;;;94.03;19.27;;;7.50;99.90;;;;;;4996038;28;262133;-70
2021/12/29 07:05:33;;;;;;;107.43;19.90;;;7.50;99.90;;;;;;5022568;28;20042;-70
2021/12/29 07:07:59;;;;;;;112.85;20.15;;;7.50;99.90;;;;;;5003310;28;260987;-69
2021/12/29 07:10:26;;;;;;;106.93;20.20;;;7.50;99.90;;;;;;5024568;28;20053;-70
2021/12/29 07:12:52;;;;;;;93.63;19.17;;;7.60;99.90;;;;;;5007522;28;262854;-69
2021/12/29 07:15:18;;;;;;;77.43;17.40;;;7.50;99.90;;;;;;5027679;28;20382;-71
2021/12/29 07:17:44;;;;;;;83.65;18.20;;;7.50;99.90;;;;;;5005024;28;257133;-70
2021/12/29 07:20:11;;;;;;;85.72;18.17;;;7.50;99.90;;;;;;5019904;28;20533;-69
2021/12/29 07:22:37;;;;;;;85.80;17.63;;;7.50;99.90;;;;;;5003632;28;268982;-70
2021/12/29 07:25:04;;;;;;;72.90;16.90;;;7.60;99.90;;;;;;5022313;28;20049;-69
2021/12/29 07:27:30;;;;;;;81.22;17.20;;;7.50;99.90;;;;;;5004207;28;249660;-69
2021/12/29 07:29:56;;;;;;;85.28;17.55;;;7.50;99.90;;;;;;5017824;28;20391;-69
2021/12/29 07:32:22;;;;;;;60.25;16.27;;;7.50;99.90;;;;;;5005187;28;262198;-70
2021/12/29 07:34:49;;;;;;;76.38;17.00;;;7.50;99.90;;;;;;5007251;28;20533;-70
2021/12/29 07:37:15;;;;;;;107.47;17.90;;;7.50;99.90;;;;;;5000273;28;273209;-70
2021/12/29 07:39:41;;;;;;;79.20;17.05;;;7.60;99.90;;;;;;5004557;28;20125;-70
2021/12/29 07:42:08;;;;;;;89.38;18.33;;;7.50;99.90;;;;;;5005541;28;253697;-71
2021/12/29 07:44:34;;;;;;;107.05;17.95;;;7.60;99.90;;;;;;5023021;28;20046;-70
2021/12/29 07:47:00;;;;;;;94.67;17.50;;;7.50;99.90;;;;;;5002405;28;271143;-69
2021/12/29 07:49:27;;;;;;;90.20;17.38;;;7.60;99.90;;;;;;5003977;28;20042;-69
2021/12/29 07:51:54;;;;;;;96.88;17.80;;;7.60;99.90;;;;;;5011949;28;270628;-70
2021/12/29 07:54:22;;;;;;;102.63;17.83;;;7.60;99.90;;;;;;5008390;28;20056;-69
2021/12/29 07:56:48;;;;;;;105.43;19.70;;;7.60;99.90;;;;;;4985095;28;259217;-67
2021/12/29 07:59:15;;;;;;;118.07;19.67;;;7.60;99.90;;;;;;5022539;28;20510;-70
2021/12/29 08:01:42;;;;;;;109.18;19.05;;;7.60;99.90;;;;;;5017945;28;260466;-70
2021/12/29 08:04:10;;;;;;;123.13;18.25;;;7.60;99.90;;;;;;4977743;28;93402;-70
2021/12/29 08:06:37;;;;;;;117.35;19.27;;;7.60;99.90;;;;;;5022543;28;20463;-69
2021/12/29 08:09:03;;;;;;;121.57;17.83;;;7.60;99.90;;;;;;5001537;28;276374;-69
2021/12/29 08:11:30;;;;;;;121.43;19.33;;;7.70;99.90;;;;;;5019932;28;20057;-69
2021/12/29 08:13:56;;;;;;;112.13;19.52;;;7.70;99.90;;;;;;4990313;28;205409;-69
2021/12/29 08:16:22;;;;;;;110.18;19.05;;;7.70;99.90;;;;;;5020861;28;20069;-70
2021/12/29 08:18:49;;;;;;;112.82;19.10;;;7.70;99.90;;;;;;4986027;28;247106;-68
2021/12/29 08:21:15;;;;;;;127.25;19.25;;;7.70;99.90;;;;;;5020986;28;20054;-69
2021/12/29 08:23:41;;;;;;;93.78;17.77;;;7.70;99.90;;;;;;4997643;28;34333;-68
2021/12/29 08:26:08;;;;;;;100.22;18.90;;;7.70;99.90;;;;;;5023455;28;20533;-69
2021/12/29 08:28:34;;;;;;;120.25;20.00;;;7.70;99.90;;;;;;5000388;28;276106;-69
2021/12/29 08:31:00;;;;;;;99.78;19.60;;;7.80;99.90;;;;;;5020550;28;20053;-69
2021/12/29 08:33:27;;;;;;;110.43;18.98;;;7.70;99.90;;;;;;5000911;28;269959;-69
2021/12/29 08:35:53;;;;;;;91.38;19.25;;;7.80;99.90;;;;;;5021766;28;20045;-70
2021/12/29 08:38:19;;;;;;;105.10;19.85;;;7.80;99.90;;;;;;4999455;28;267228;-69
2021/12/29 08:40:46;;;;;;;111.40;19.83;;;7.80;99.90;;;;;;5022033;28;20060;-69
2021/12/29 08:43:14;;;;;;;88.53;19.65;;;7.80;99.90;;;;;;5005340;28;257815;-69
2021/12/29 08:45:42;;;;;;;111.80;20.08;;;7.80;99.90;;;;;;5023529;28;20056;-69
2021/12/29 08:48:09;;;;;;;109.75;20.00;;;7.80;99.90;;;;;;5000820;28;270360;-69
2021/12/29 08:50:36;;;;;;;128.10;20.65;;;7.80;99.90;;;;;;5027009;28;20413;-69
2021/12/29 08:53:04;;;;;;;125.38;20.02;;;7.70;99.90;;;;;;5001416;28;258907;-69
2021/12/29 08:55:32;;;;;;;122.20;18.77;;;7.70;99.90;;;;;;5023462;28;20519;-70
2021/12/29 08:57:59;;;;;;;134.20;18.95;;;7.70;99.90;;;;;;4998801;28;268882;-69
2021/12/29 09:00:26;;;;;;;137.13;19.52;;;7.80;99.90;;;;;;5023816;28;20049;-69
2021/12/29 09:02:52;;;;;;;131.25;18.98;;;7.80;99.90;;;;;;4991486;28;259181;-69
2021/12/29 09:05:18;;;;;;;175.60;19.85;;;7.80;99.90;;;;;;5011249;28;20042;-70
2021/12/29 09:07:46;;;;;;;155.20;19.70;;;7.80;99.90;;;;;;5002379;28;253473;-70
2021/12/29 09:10:15;;;;;;;139.02;18.83;;;7.80;99.90;;;;;;5022344;28;20080;-70
2021/12/29 09:12:41;;;;;;;136.68;18.08;;;7.80;99.90;;;;;;5001501;28;271769;-70
2021/12/29 09:15:08;;;;;;;120.50;16.20;;;7.80;99.90;;;;;;5001553;28;20502;-71
2021/12/29 09:17:35;;;;;;;131.35;16.10;;;7.80;99.90;;;;;;5006525;28;241379;-69
2021/12/29 09:20:02;;;;;;;115.72;15.73;;;7.80;99.90;;;;;;5028711;28;20053;-70
2021/12/29 09:22:28;;;;;;;109.90;15.68;;;7.80;99.90;;;;;;5011627;28;268869;-70
2021/12/29 09:24:54;;;;;;;108.85;14.48;;;7.90;99.90;;;;;;5025625;28;20430;-69
2021/12/29 09:27:20;;;;;;;118.47;15.60;;;7.90;99.90;;;;;;5004224;28;254159;-70
2021/12/29 09:29:47;;;;;;;142.50;16.38;;;7.90;99.90;;;;;;5028768;28;20058;-70
2021/12/29 09:32:13;;;;;;;126.70;15.23;;;7.90;99.90;;;;;;5006696;28;254923;-70
2021/12/29 09:34:39;;;;;;;138.23;15.13;;;7.90;99.90;;;;;;5010431;28;20064;-70
2021/12/29 09:37:06;;;;;;;112.30;15.13;;;7.90;99.90;;;;;;5003565;28;268621;-69
2021/12/29 09:39:33;;;;;;;116.40;15.82;;;8.00;99.90;;;;;;5021847;28;20061;-69
2021/12/29 09:41:59;;;;;;;49.03;12.07;;;8.00;99.90;;;;;;4989044;28;266333;-69
2021/12/29 09:44:25;;;;;;;39.05;10.68;;;8.00;99.90;;;;;;5000089;28;20049;-71
2021/12/29 09:46:53;;;;;;;36.13;10.63;;;8.00;99.90;;;;;;4993670;28;274302;-69
2021/12/29 09:49:21;;;;;;;37.70;10.93;;;8.00;99.90;;;;;;5027431;28;20193;-71
2021/12/29 09:51:49;;;;;;;32.15;9.40;;;8.10;99.90;;;;;;4989986;28;249619;-69
2021/12/29 09:54:16;;;;;;;33.55;10.30;;;8.10;99.90;;;;;;5024826;28;20080;-70
2021/12/29 09:56:42;;;;;;;37.38;9.77;;;8.20;99.90;;;;;;5007902;28;267772;-70
2021/12/29 09:59:08;;;;;;;34.30;9.43;;;8.20;99.90;;;;;;5024460;28;20359;-70
2021/12/29 10:01:34;;;;;;;31.40;9.30;;;8.20;99.90;;;;;;5021317;28;20089;-71
2021/12/29 10:04:00;;;;;;;31.05;8.88;;;8.30;99.90;;;;;;4987482;28;261415;-70
2021/12/29 10:06:27;;;;;;;32.33;9.48;;;8.30;99.90;;;;;;5016062;28;20529;-70
2021/12/29 10:08:53;;;;;;;32.90;9.60;;;8.30;99.90;;;;;;5004253;28;211942;-69
2021/12/29 10:11:27;;;;;;;29.65;9.13;;;8.30;99.90;;;;;;5007585;28;20506;-70
2021/12/29 10:13:53;;;;;;;30.50;10.02;;;8.30;99.90;;;;;;4996866;28;29414;-70
2021/12/29 10:16:28;;;;;;;29.40;9.27;;;8.30;99.90;;;;;;5031334;28;20057;-70
2021/12/29 10:19:12;;;;;;;24.73;9.27;;;8.30;99.90;;;;;;5010243;28;259651;-70
2021/12/29 10:21:49;;;;;;;30.17;9.38;;;8.40;99.90;;;;;;5012508;28;20045;-70
2021/12/29 10:24:18;;;;;;;38.83;9.82;;;8.40;99.90;;;;;;5016056;28;20044;-70
2021/12/29 10:26:48;;;;;;;31.15;9.63;;;8.40;99.90;;;;;;4988118;28;263724;-70
2021/12/29 10:29:17;;;;;;;33.30;9.82;;;8.40;99.90;;;;;;5027418;28;20462;-70
2021/12/29 10:31:49;;;;;;;37.03;10.38;;;8.40;99.90;;;;;;5005686;28;259731;-70
2021/12/29 10:34:23;;;;;;;33.70;10.60;;;8.40;99.90;;;;;;5028240;28;20057;-70
2021/12/29 10:37:08;;;;;;;35.35;11.02;;;8.50;99.90;;;;;;5005469;28;262870;-70
2021/12/29 10:39:38;;;;;;;35.63;11.43;;;8.50;99.90;;;;;;5017643;28;20061;-69
2021/12/29 10:42:09;;;;;;;36.60;11.80;;;8.50;99.90;;;;;;5010883;28;249181;-69
2021/12/29 10:44:39;;;;;;;36.35;11.18;;;8.50;99.90;;;;;;5025127;28;20402;-69
2021/12/29 10:47:26;;;;;;;32.45;11.43;;;8.50;99.90;;;;;;5010924;28;273748;-71
2021/12/29 10:50:02;;;;;;;36.58;11.77;;;8.50;99.90;;;;;;5024836;28;20057;-69
2021/12/29 10:52:34;;;;;;;39.58;12.10;;;8.50;99.90;;;;;;5006547;28;248669;-69
2021/12/29 10:55:02;;;;;;;33.08;11.98;;;8.50;99.90;;;;;;5008418;28;20064;-71
2021/12/29 10:57:28;;;;;;;29.42;11.57;;;8.50;99.90;;;;;;4999412;28;41247;-70
2021/12/29 10:59:57;;;;;;;43.15;12.13;;;8.40;99.90;;;;;;5027977;28;20502;-68
2021/12/29 11:02:33;;;;;;;34.83;11.70;;;8.50;99.90;;;;;;4984213;28;122388;-69
2021/12/29 11:05:06;;;;;;;32.85;11.02;;;8.50;99.90;;;;;;5010457;28;20060;-69
2021/12/29 11:07:34;;;;;;;42.25;11.70;;;8.40;99.90;;;;;;4994029;28;35733;-71
2021/12/29 11:10:15;;;;;;;36.90;11.20;;;8.40;99.90;;;;;;5010967;28;20075;-70
2021/12/29 11:12:54;;;;;;;43.45;10.90;;;8.50;99.90;;;;;;5003661;28;262513;-70
2021/12/29 11:15:27;;;;;;;37.85;10.90;;;8.50;99.90;;;;;;5005215;28;20072;-71
2021/12/29 11:17:55;;;;;;;34.83;11.00;;;8.50;99.90;;;;;;4998539;28;254780;-69
2021/12/29 11:20:24;;;;;;;35.10;11.25;;;8.50;99.90;;;;;;5025348;28;20057;-70
2021/12/29 11:23:02;;;;;;;41.05;11.30;;;8.50;99.90;;;;;;5003367;28;42599;-71
2021/12/29 11:25:30;;;;;;;35.20;10.73;;;8.50;99.90;;;;;;5025253;28;20080;-71
2021/12/29 11:27:56;;;;;;;40.05;10.43;;;8.50;99.90;;;;;;5016642;28;255830;-70
2021/12/29 11:30:22;;;;;;;39.33;10.88;;;8.60;99.90;;;;;;5025728;28;20045;-71
2021/12/29 11:32:49;;;;;;;37.45;10.55;;;8.60;99.90;;;;;;5003329;28;262470;-69
2021/12/29 11:35:22;;;;;;;34.33;9.98;;;8.70;99.90;;;;;;5027182;28;20394;-70
2021/12/29 11:37:51;;;;;;;35.22;10.25;;;8.70;99.90;;;;;;5008004;28;257542;-69
2021/12/29 11:40:30;;;;;;;38.55;10.25;;;8.80;99.90;;;;;;5006653;28;20045;-70
2021/12/29 11:42:57;;;;;;;32.67;9.63;;;8.80;99.90;;;;;;5006672;28;245427;-69
2021/12/29 11:45:24;;;;;;;38.22;10.23;;;8.90;99.90;;;;;;5011642;28;20041;-71
2021/12/29 11:47:52;;;;;;;35.95;10.10;;;8.90;99.90;;;;;;5011770;28;261957;-70
2021/12/29 11:50:25;;;;;;;38.53;10.02;;;8.90;99.90;;;;;;5007214;28;20053;-68
2021/12/29 11:53:28;;;;;;;32.35;9.73;;;9.00;99.90;;;;;;5007136;28;265109;-68
2021/12/29 11:56:01;;;;;;;31.45;8.70;;;9.00;99.90;;;;;;5026648;28;20052;-70
2021/12/29 11:58:41;;;;;;;33.08;9.13;;;9.00;99.90;;;;;;5004446;28;270726;-69
2021/12/29 12:01:14;;;;;;;34.65;8.80;;;9.00;99.90;;;;;;5026270;28;20060;-69
2021/12/29 12:03:52;;;;;;;35.10;9.63;;;8.90;99.90;;;;;;4988174;28;239829;-69
2021/12/29 12:06:44;;;;;;;28.45;8.00;;;8.90;99.90;;;;;;5024041;28;20058;-69
2021/12/29 12:09:13;;;;;;;26.65;7.72;;;8.80;99.90;;;;;;5000053;28;20092;-70
2021/12/29 12:11:51;;;;;;;32.60;8.57;;;8.80;99.90;;;;;;5024503;28;20118;-73
2021/12/29 12:14:24;;;;;;;29.77;7.20;;;8.80;99.90;;;;;;4982436;28;20045;-70
2021/12/29 12:17:05;;;;;;;30.60;7.13;;;8.70;99.90;;;;;;5006489;28;254755;-70
2021/12/29 12:19:32;;;;;;;26.73;6.75;;;8.70;99.90;;;;;;5021692;28;20062;-71
2021/12/29 12:22:19;;;;;;;25.45;6.22;;;8.60;99.90;;;;;;5005400;28;249590;-70
2021/12/29 12:24:51;;;;;;;23.08;6.10;;;8.60;99.90;;;;;;5005949;28;20505;-70
2021/12/29 12:27:41;;;;;;;21.00;6.22;;;8.60;99.90;;;;;;5002945;28;274302;-68
2021/12/29 12:30:19;;;;;;;18.48;5.43;;;8.60;99.90;;;;;;5029428;28;20137;-68
2021/12/29 12:32:50;;;;;;;21.20;5.93;;;8.60;99.90;;;;;;4990402;28;194253;-69
2021/12/29 12:35:34;;;;;;;23.50;5.80;;;8.50;99.90;;;;;;5024848;28;20068;-69
2021/12/29 12:38:27;;;;;;;26.70;6.07;;;8.60;99.90;;;;;;4992284;28;32982;-70
2021/12/29 12:41:07;;;;;;;26.23;6.13;;;8.60;99.90;;;;;;5027527;28;20076;-69